New Nada — 3ELP9 — position and weather

sailwx.info

Track history (hours):
 
Tides and Currents Weather Stations Pressure Air Temp Water Temp Dewpoint Dewpoint Depression Visibility Wind Speed Wind Dir Waves Ship Positions

New Nada

Last reported at 2014-Jul-14 08:03 UTC. Time now 2014-Jul-22 15:28 UTC.
Position N 37°28' W 130°59'.
Warning: this ship's position is 8 days out of date.

Length 180 m; beam 32.2 m.

Type: Cargo ship. MMSI: 356005000.

Date/timePositionNaut miles runAvg speedWind from/ knotsBaromVisibWave heightAir tempDewpointWater temp
2014-Jul-14 08:03N 37°28' W 130°59'12018.1
2014-Jul-14 01:25N 37°33' W 128°28'1617.6
2014-Jul-14 00:29N 37°33' W 128°07'1617.4
2014-Jul-13 23:33N 37°34' W 127°47'1717.0
2014-Jul-13 22:33N 37°34' W 127°25'1716.8
2014-Jul-13 21:33N 37°33' W 127°04'1716.8
2014-Jul-13 20:33N 37°34' W 126°43'1717.0
2014-Jul-13 19:33N 37°34' W 126°22'1817.2
2014-Jul-13 18:29N 37°34' W 125°58'1617.5
2014-Jul-13 17:33N 37°34' W 125°38'1717.3
2014-Jul-13 16:33N 37°34' W 125°16'1817.7
2014-Jul-13 15:33N 37°34' W 124°54'1716.9
2014-Jul-13 14:33N 37°34' W 124°33'1716.8
2014-Jul-13 13:33N 37°34' W 124°11'1717.5
2014-Jul-13 12:33N 37°34' W 123°49'1717.0
2014-Jul-13 11:33N 37°34' W 123°28'1615.9
2014-Jul-13 10:33N 37°34' W 123°08'1615.8
2014-Jul-13 09:33N 37°41' W 122°50'1211.9
2014-Jul-13 08:33N 37°46' W 122°37'1110.8
2014-Jul-13 07:33N 37°52' W 122°25'9 9.5
2014-Jul-13 06:33N 38°01' W 122°23'10 9.8
2014-Jul-13 05:33N 38°03' W 122°11'2 0.1
2014-Jul-12 13:10N 38°02' W 122°08'0 0.0
2014-Jul-12 11:22N 38°02' W 122°08'0 0.1
2014-Jul-12 08:29N 38°02' W 122°08'1111.5
2014-Jul-12 07:34N 38°02' W 122°21'1211.8
2014-Jul-12 06:34N 37°51' W 122°25'1413.5
2014-Jul-12 05:34N 37°45' W 122°40'9 8.6
2014-Jul-12 04:32N 37°36' W 122°40'1110.8
2014-Jul-12 03:33N 37°25' W 122°40'1010.0
2014-Jul-12 02:33N 37°15' W 122°40'1514.8
2014-Jul-12 01:33N 37°00' W 122°40'1717.1
2014-Jul-12 00:33N 36°43' W 122°39'1717.5
2014-Jul-11 23:33N 36°26' W 122°34'1717.2
2014-Jul-11 22:33N 36°09' W 122°30'1716.8
2014-Jul-11 21:33N 35°54' W 122°21'1716.6
2014-Jul-11 20:33N 35°39' W 122°14'5 4.7
2014-Jul-11 19:33N 35°34' W 122°12'1 0.9
2014-Jul-11 18:33N 35°35' W 122°12'1 1.1
2014-Jul-11 17:32N 35°36' W 122°12'0 0.4
2014-Jul-11 16:33N 35°37' W 122°12'10616.9
2014-Jul-11 10:18N 34°23' W 120°39'1317.3
2014-Jul-11 09:33N 34°20' W 120°24'1717.0
2014-Jul-11 08:33N 34°16' W 120°04'1616.2
2014-Jul-11 07:33N 34°12' W 119°45'1616.1
2014-Jul-11 06:33N 34°07' W 119°27'1616.5
2014-Jul-11 05:33N 34°01' W 119°08'1414.5
2014-Jul-11 04:34N 33°53' W 118°53'1211.5
2014-Jul-11 03:33N 33°48' W 118°41'1211.6
2014-Jul-11 02:34N 33°42' W 118°29'1110.8
2014-Jul-11 01:34N 33°39' W 118°17'7 6.8
2014-Jul-11 00:34N 33°44' W 118°12'3 2.5
2014-Jul-10 23:32N 33°46' W 118°13'0 0.0
2014-Jul-10 22:32N 33°46' W 118°13'0 0.0
2014-Jul-10 21:32N 33°46' W 118°13'0 0.0
2014-Jul-10 20:29N 33°46' W 118°13'0 0.0
2014-Jul-10 19:05N 33°46' W 118°13'0 0.0
2014-Jul-10 18:23N 33°46' W 118°13'0 0.0
2014-Jul-10 17:29N 33°46' W 118°13'0 0.0
2014-Jul-10 16:14N 33°46' W 118°13'0 0.0
2014-Jul-10 13:32N 33°46' W 118°13'1 1.4
2014-Jul-10 12:33N 33°45' W 118°13'7 6.6
2014-Jul-10 11:33N 33°38' W 118°12'8 8.2
2014-Jul-10 10:34N 33°36' W 118°21'10 9.9
2014-Jul-10 09:33N 33°41' W 118°32'1110.6
2014-Jul-10 08:33N 33°46' W 118°43'1110.2
2014-Jul-10 07:30N 33°52' W 118°54'9 9.8
2014-Jul-10 06:33N 33°56' W 119°04'7 6.2
2014-Jul-10 05:23N 34°00' W 119°11'910.4
2014-Jul-10 04:33N 34°03' W 119°21'1110.8
2014-Jul-10 03:33N 34°06' W 119°33'1110.9
2014-Jul-10 02:33N 34°09' W 119°46'1111.0
2014-Jul-10 01:33N 34°12' W 119°59'1010.3
2014-Jul-10 00:34N 34°15' W 120°11'10 9.7
2014-Jul-09 23:33N 34°17' W 120°22'9 9.0
2014-Jul-09 22:33N 34°20' W 120°33'27315.2
2014-Jul-09 04:33N 35°35' W 125°53'  
Track history (hours):
 
Tides and Currents Weather Stations Pressure Air Temp Water Temp Dewpoint Dewpoint Depression Visibility Wind Speed Wind Dir Waves Ship Positions

New Nada

Last reported at 2014-Jul-14 08:03 UTC. Time now 2014-Jul-22 15:28 UTC.
Position N 37°28' W 130°59'.
Warning: this ship's position is 8 days out of date.

Length 180 m; beam 32.2 m.

Type: Cargo ship. MMSI: 356005000.

Date/timePositionNaut miles runAvg speedWind from/ knotsBaromVisibWave heightAir tempDewpointWater temp
2014-Jul-14 08:03N 37°28' W 130°59'12018.1
2014-Jul-14 01:25N 37°33' W 128°28'1617.6
2014-Jul-14 00:29N 37°33' W 128°07'1617.4
2014-Jul-13 23:33N 37°34' W 127°47'1717.0
2014-Jul-13 22:33N 37°34' W 127°25'1716.8
2014-Jul-13 21:33N 37°33' W 127°04'1716.8
2014-Jul-13 20:33N 37°34' W 126°43'1717.0
2014-Jul-13 19:33N 37°34' W 126°22'1817.2
2014-Jul-13 18:29N 37°34' W 125°58'1617.5
2014-Jul-13 17:33N 37°34' W 125°38'1717.3
2014-Jul-13 16:33N 37°34' W 125°16'1817.7
2014-Jul-13 15:33N 37°34' W 124°54'1716.9
2014-Jul-13 14:33N 37°34' W 124°33'1716.8
2014-Jul-13 13:33N 37°34' W 124°11'1717.5
2014-Jul-13 12:33N 37°34' W 123°49'1717.0
2014-Jul-13 11:33N 37°34' W 123°28'1615.9
2014-Jul-13 10:33N 37°34' W 123°08'1615.8
2014-Jul-13 09:33N 37°41' W 122°50'1211.9
2014-Jul-13 08:33N 37°46' W 122°37'1110.8
2014-Jul-13 07:33N 37°52' W 122°25'9 9.5
2014-Jul-13 06:33N 38°01' W 122°23'10 9.8
2014-Jul-13 05:33N 38°03' W 122°11'2 0.1
2014-Jul-12 13:10N 38°02' W 122°08'0 0.0
2014-Jul-12 11:22N 38°02' W 122°08'0 0.1
2014-Jul-12 08:29N 38°02' W 122°08'1111.5
2014-Jul-12 07:34N 38°02' W 122°21'1211.8
2014-Jul-12 06:34N 37°51' W 122°25'1413.5
2014-Jul-12 05:34N 37°45' W 122°40'9 8.6
2014-Jul-12 04:32N 37°36' W 122°40'1110.8
2014-Jul-12 03:33N 37°25' W 122°40'1010.0
2014-Jul-12 02:33N 37°15' W 122°40'1514.8
2014-Jul-12 01:33N 37°00' W 122°40'1717.1
2014-Jul-12 00:33N 36°43' W 122°39'1717.5
2014-Jul-11 23:33N 36°26' W 122°34'1717.2
2014-Jul-11 22:33N 36°09' W 122°30'1716.8
2014-Jul-11 21:33N 35°54' W 122°21'1716.6
2014-Jul-11 20:33N 35°39' W 122°14'5 4.7
2014-Jul-11 19:33N 35°34' W 122°12'1 0.9
2014-Jul-11 18:33N 35°35' W 122°12'1 1.1
2014-Jul-11 17:32N 35°36' W 122°12'0 0.4
2014-Jul-11 16:33N 35°37' W 122°12'10616.9
2014-Jul-11 10:18N 34°23' W 120°39'1317.3
2014-Jul-11 09:33N 34°20' W 120°24'1717.0
2014-Jul-11 08:33N 34°16' W 120°04'1616.2
2014-Jul-11 07:33N 34°12' W 119°45'1616.1
2014-Jul-11 06:33N 34°07' W 119°27'1616.5
2014-Jul-11 05:33N 34°01' W 119°08'1414.5
2014-Jul-11 04:34N 33°53' W 118°53'1211.5
2014-Jul-11 03:33N 33°48' W 118°41'1211.6
2014-Jul-11 02:34N 33°42' W 118°29'1110.8
2014-Jul-11 01:34N 33°39' W 118°17'7 6.8
2014-Jul-11 00:34N 33°44' W 118°12'3 2.5
2014-Jul-10 23:32N 33°46' W 118°13'0 0.0
2014-Jul-10 22:32N 33°46' W 118°13'0 0.0
2014-Jul-10 21:32N 33°46' W 118°13'0 0.0
2014-Jul-10 20:29N 33°46' W 118°13'0 0.0
2014-Jul-10 19:05N 33°46' W 118°13'0 0.0
2014-Jul-10 18:23N 33°46' W 118°13'0 0.0
2014-Jul-10 17:29N 33°46' W 118°13'0 0.0
2014-Jul-10 16:14N 33°46' W 118°13'0 0.0
2014-Jul-10 13:32N 33°46' W 118°13'1 1.4
2014-Jul-10 12:33N 33°45' W 118°13'7 6.6
2014-Jul-10 11:33N 33°38' W 118°12'8 8.2
2014-Jul-10 10:34N 33°36' W 118°21'10 9.9
2014-Jul-10 09:33N 33°41' W 118°32'1110.6
2014-Jul-10 08:33N 33°46' W 118°43'1110.2
2014-Jul-10 07:30N 33°52' W 118°54'9 9.8
2014-Jul-10 06:33N 33°56' W 119°04'7 6.2
2014-Jul-10 05:23N 34°00' W 119°11'910.4
2014-Jul-10 04:33N 34°03' W 119°21'1110.8
2014-Jul-10 03:33N 34°06' W 119°33'1110.9
2014-Jul-10 02:33N 34°09' W 119°46'1111.0
2014-Jul-10 01:33N 34°12' W 119°59'1010.3
2014-Jul-10 00:34N 34°15' W 120°11'10 9.7
2014-Jul-09 23:33N 34°17' W 120°22'9 9.0
2014-Jul-09 22:33N 34°20' W 120°33'27315.2
2014-Jul-09 04:33N 35°35' W 125°53'  

Dump ship's entire track history